Tice, Illinois
Current Conditions -  °F | °C
As of 9:52 PM on Saturday 25 Oct 2014 (Local Time) from KSPI Reporting Station
Clear Clear  
Wind Chill: 54°   Ceiling: Unl
Heat Index: 54°   Visibility: 10mi
Dew Point: 45°   Wind: 5mph
Humidity: 72%   Direction: 310°NW
Pressure: 30.03"   Gusts: NA
Location:  40.0452°N, 89.8548°W
Report Text: KSPI 260252Z 31004KT 10SM CLR 12/07 A3003 RMK AO2 SLP167 T01220072 51007
Loading
Personal Weather Stations






























Interactive Weather Map
Tropical Storm Tracking
New forecast layout! Learn more

10-Day Weather Forecast

Advertisements
Track Severe Weather on mobile